createdAt,value
2023-04-18T00:03:18.703Z,98.35
2023-04-18T00:08:24.779Z,82.53
2023-04-18T00:13:31.514Z,96.10
2023-04-18T00:18:38.524Z,86.72
2023-04-18T00:23:44.882Z,107.07
2023-04-18T00:28:51.036Z,99.00
2023-04-18T00:34:34.671Z,93.25
2023-04-18T00:45:20.608Z,87.05
2023-04-18T00:50:29.212Z,81.82
2023-04-18T00:55:38.044Z,77.68
2023-04-18T01:00:46.397Z,89.95
2023-04-18T01:05:54.511Z,84.60
2023-04-18T01:11:03.096Z,57.95
2023-04-18T01:16:09.142Z,71.57
2023-04-18T01:21:19.456Z,65.65
2023-04-18T01:31:51.899Z,60.42
2023-04-18T01:36:57.692Z,69.32
2023-04-18T01:42:19.033Z,64.30
2023-04-18T01:47:29.165Z,70.63
2023-04-18T01:52:35.909Z,67.40
2023-04-18T01:57:47.337Z,63.97
2023-04-18T02:02:55.179Z,55.45
2023-04-18T02:08:02.120Z,56.35
2023-04-18T02:27:19.358Z,49.90
2023-04-18T02:32:31.092Z,53.40
2023-04-18T02:37:50.269Z,60.47
2023-04-18T02:42:57.625Z,51.88
2023-04-18T02:48:03.962Z,59.28
2023-04-18T02:53:11.872Z,59.60
2023-04-18T02:58:37.364Z,56.88
2023-04-18T03:04:12.537Z,68.20
2023-04-18T03:09:23.521Z,57.97
2023-04-18T03:14:35.296Z,56.97
2023-04-18T03:19:41.420Z,56.35
2023-04-18T03:24:50.603Z,64.78
2023-04-18T03:29:57.162Z,74.68
2023-04-18T03:35:06.064Z,64.97
2023-04-18T03:40:12.821Z,70.95
2023-04-18T03:45:20.529Z,63.20
2023-04-18T03:50:27.328Z,64.22
2023-04-18T03:55:35.413Z,72.32
2023-04-18T04:06:21.534Z,68.22
2023-04-18T04:11:27.548Z,65.13
2023-04-18T04:16:33.903Z,66.03
2023-04-18T04:21:43.217Z,69.88
2023-04-18T04:26:52.246Z,67.35
2023-04-18T04:32:02.036Z,66.28
2023-04-18T04:37:11.854Z,65.60
2023-04-18T04:42:26.717Z,77.80
2023-04-18T04:47:38.566Z,80.25
2023-04-18T04:57:49.973Z,70.25
2023-04-18T05:03:15.049Z,66.00
2023-04-18T05:08:20.601Z,71.00
2023-04-18T05:13:26.579Z,65.63
2023-04-18T05:18:34.334Z,52.70
2023-04-18T05:23:41.623Z,63.05
2023-04-18T05:28:47.187Z,64.20
2023-04-18T05:33:52.546Z,69.00
2023-04-18T05:38:58.230Z,66.05
2023-04-18T05:49:12.027Z,70.82
2023-04-18T05:54:26.407Z,76.05
2023-04-18T05:59:31.728Z,75.15
2023-04-18T06:04:38.024Z,83.35
2023-04-18T06:09:46.950Z,85.30
2023-04-18T06:15:00.221Z,85.50
2023-04-18T06:20:07.809Z,66.40
2023-04-18T06:25:15.061Z,73.43
2023-04-18T06:30:23.452Z,62.22
2023-04-18T06:35:29.101Z,72.38
2023-04-18T06:40:37.577Z,72.28
2023-04-18T06:45:57.187Z,75.68
2023-04-18T06:51:03.203Z,77.57
2023-04-18T06:56:08.947Z,74.68
2023-04-18T07:01:14.519Z,80.43
2023-04-18T07:06:29.309Z,75.63
2023-04-18T07:12:10.991Z,59.88
2023-04-18T07:17:16.509Z,59.35
2023-04-18T07:22:25.803Z,65.55
2023-04-18T07:27:36.800Z,71.70
2023-04-18T07:34:16.134Z,66.90
2023-04-18T07:39:31.425Z,79.45
2023-04-18T07:44:59.574Z,78.55
2023-04-18T07:50:19.941Z,68.35
2023-04-18T07:55:26.298Z,78.03
2023-04-18T08:07:34.159Z,81.43
2023-04-18T08:25:52.605Z,83.90
2023-04-18T08:31:18.757Z,101.20
2023-04-18T08:38:15.899Z,96.32
2023-04-18T08:42:59.946Z,87.68
2023-04-18T08:48:21.114Z,87.70
2023-04-18T08:53:28.147Z,103.97
2023-04-18T08:58:35.236Z,105.95
2023-04-18T09:03:46.278Z,100.45
2023-04-18T09:09:01.145Z,101.22
2023-04-18T09:14:07.510Z,102.13
2023-04-18T09:19:20.609Z,85.13
2023-04-18T09:24:31.523Z,100.25
2023-04-18T09:29:58.002Z,103.35
2023-04-18T09:35:06.871Z,98.15
2023-04-18T09:40:20.643Z,98.57
2023-04-18T09:45:27.794Z,94.53
2023-04-18T09:50:34.588Z,98.88
2023-04-18T09:55:43.845Z,101.65
2023-04-18T10:06:19.335Z,103.32
2023-04-18T10:11:30.684Z,100.30
2023-04-18T10:16:37.252Z,93.43
2023-04-18T10:21:54.142Z,98.18
2023-04-18T10:27:03.734Z,93.22
2023-04-18T10:32:17.332Z,104.43
2023-04-18T10:49:27.849Z,111.72
2023-04-18T10:54:51.472Z,98.03
2023-04-18T11:00:06.290Z,82.15
2023-04-18T11:06:05.642Z,95.30
2023-04-18T11:24:55.037Z,91.60
2023-04-18T11:36:02.498Z,79.18
2023-04-18T11:47:40.671Z,79.72
2023-04-18T11:52:57.390Z,85.95
2023-04-18T12:11:05.010Z,76.95
2023-04-18T12:16:49.954Z,76.32
2023-04-18T12:22:40.303Z,84.28
2023-04-18T12:28:04.637Z,70.93
2023-04-18T12:33:10.816Z,82.85
2023-04-18T12:38:29.809Z,77.97
2023-04-18T12:43:35.581Z,84.20
2023-04-18T12:53:49.979Z,68.47
2023-04-18T13:06:10.308Z,84.97
2023-04-18T13:23:53.720Z,64.60
2023-04-18T13:29:43.913Z,83.22
2023-04-18T13:36:14.996Z,82.25
2023-04-18T13:41:58.344Z,80.90
2023-04-18T13:47:42.614Z,80.72
2023-04-18T13:53:28.898Z,90.85
2023-04-18T13:58:41.494Z,91.30
2023-04-18T14:04:00.640Z,82.85
2023-04-18T14:09:27.842Z,107.90
2023-04-18T14:14:58.805Z,102.15
2023-04-18T14:20:12.554Z,94.75
2023-04-18T14:25:37.722Z,93.10
2023-04-18T14:36:16.580Z,92.03
2023-04-18T14:42:05.770Z,87.93
2023-04-18T14:47:35.599Z,81.05
2023-04-18T14:54:47.305Z,87.78
2023-04-18T15:12:57.338Z,96.32
2023-04-18T15:18:39.489Z,77.13
2023-04-18T15:23:45.238Z,86.43
2023-04-18T15:33:59.801Z,76.78
2023-04-18T15:39:10.614Z,74.28
2023-04-18T15:45:05.096Z,67.90
2023-04-18T15:50:12.615Z,70.22
2023-04-18T15:55:27.245Z,66.78
2023-04-18T16:05:38.211Z,74.35
2023-04-18T16:10:47.198Z,73.05
2023-04-18T16:15:52.971Z,79.45
2023-04-18T16:21:06.071Z,91.07
2023-04-18T16:26:13.045Z,65.90
2023-04-18T16:31:22.180Z,70.82
2023-04-18T16:36:31.040Z,63.90
2023-04-18T16:48:53.657Z,68.53
2023-04-18T16:54:02.334Z,66.65
2023-04-18T16:59:12.556Z,72.38
2023-04-18T17:04:18.550Z,59.03
2023-04-18T17:09:27.016Z,65.30
2023-04-18T17:16:13.024Z,64.10
2023-04-18T17:21:18.939Z,54.45
2023-04-18T17:26:26.766Z,58.88
2023-04-18T17:31:33.516Z,58.88
2023-04-18T17:36:38.986Z,65.20
2023-04-18T17:41:44.244Z,52.00
2023-04-18T17:46:50.622Z,57.85
2023-04-18T17:51:56.515Z,67.18
2023-04-18T17:57:03.335Z,46.80
2023-04-18T18:02:09.893Z,50.33
2023-04-18T18:07:16.223Z,48.20
2023-04-18T18:12:21.896Z,62.40
2023-04-18T18:17:27.971Z,67.88
2023-04-18T18:22:46.191Z,60.00
2023-04-18T18:27:56.000Z,47.67
2023-04-18T18:33:05.288Z,51.83
2023-04-18T18:38:17.575Z,70.45
2023-04-18T18:43:27.621Z,66.95
2023-04-18T18:48:34.723Z,50.13
2023-04-18T18:53:41.612Z,50.47
2023-04-18T18:58:47.140Z,53.92
2023-04-18T19:03:55.873Z,59.97
2023-04-18T19:09:01.840Z,58.30
2023-04-18T19:19:13.060Z,72.18
2023-04-18T19:24:19.357Z,58.72
2023-04-18T19:29:25.090Z,63.63
2023-04-18T19:39:36.396Z,74.97
2023-04-18T19:44:41.915Z,48.97
2023-04-18T19:49:47.444Z,70.25
2023-04-18T19:54:55.492Z,57.67
2023-04-18T20:00:01.085Z,69.47
2023-04-18T20:05:17.611Z,75.80
2023-04-18T20:10:26.177Z,76.55
2023-04-18T20:15:31.998Z,72.25
2023-04-18T20:26:05.448Z,75.43
2023-04-18T20:31:13.714Z,70.28
2023-04-18T20:36:21.047Z,59.25
2023-04-18T20:41:28.810Z,92.45
2023-04-18T20:46:34.574Z,72.63
2023-04-18T20:56:45.750Z,81.93
2023-04-18T21:01:51.307Z,62.47
2023-04-18T21:06:57.909Z,67.72
2023-04-18T21:12:04.273Z,63.20
2023-04-18T21:17:12.990Z,63.03
2023-04-18T21:22:19.027Z,77.68
2023-04-18T21:27:24.274Z,39.83
2023-04-18T21:32:30.180Z,42.87
2023-04-18T21:37:35.912Z,50.95
2023-04-18T21:42:41.697Z,62.85
2023-04-18T21:47:47.143Z,49.25
2023-04-18T21:52:52.818Z,62.17
2023-04-18T21:57:58.441Z,78.45
2023-04-18T22:03:04.583Z,41.60
2023-04-18T22:08:11.379Z,43.78
2023-04-18T22:13:16.514Z,54.63
2023-04-18T22:18:26.105Z,57.03
2023-04-18T22:23:32.241Z,53.78
2023-04-18T22:28:38.598Z,74.57
2023-04-18T22:33:43.930Z,75.57
2023-04-18T22:38:49.122Z,52.03
2023-04-18T22:43:54.815Z,59.38
2023-04-18T22:49:02.098Z,71.20
2023-04-18T22:54:07.719Z,77.57
2023-04-18T22:59:13.584Z,65.07
2023-04-18T23:04:19.511Z,92.55
2023-04-18T23:09:28.180Z,79.80
2023-04-18T23:14:37.984Z,62.60
2023-04-18T23:19:43.976Z,78.45
2023-04-18T23:24:49.850Z,86.90
2023-04-18T23:29:55.323Z,88.43
2023-04-18T23:35:05.492Z,57.28
2023-04-18T23:40:11.367Z,53.92
2023-04-18T23:50:23.027Z,107.07
2023-04-18T23:55:29.207Z,81.63
